aviador You're here:

KCIU Decoded Metar

CHIPPEWA INTL in MI, USA
Report Time2017-09-22 11:39:00
UTC Time2017-09-22 11:43:15
Flight Rules ifr IFR
Wind140° at 06 kt
W.Decomp.*RWY 16: 5.8 kt HW 1.5 kt LCW
RWY 09: 3.4 kt HW 5.0 kt RCW
W.Rank140° ranks 7
Current wind is below 140° avg. (8.4)
Visibility4023 m
Phenomena:Mist
Clouds:Overcast 080 Hf
Ceiling8,000 ft
Temp18°C (ISA +5)
Dew Point18°C (100% RH)
QNH1018 hPa
Density Alt1,450 ft
Elevation801 ft
Report Wrong Elevation
Raw Report
SPECI KCIU 221139Z AUTO 14006KT 2 1/2SM BR OVC080 18/18 A3007 RMK
AO2 PNO $=

Extra information for KCIU:More info

Metar Taf Metar & Taf Last 4 Metars F.Rules Stats Wind Profile Meteogram Temp Stats Airport Information Weather charts Add Link Nearby VenuesMetar ALERT Operation Metar Decoded Social comments

AIRNAV info for KCIU